Legend :    VFR   Marginal VFR   IFR   Intensive IFR   Very Intensive IFR
Visi :
Ceiling :
>= 8 km
>= 3000ft
5 to 8 km
1000 to 3000 ft
1500m to 5 km
500 to 1000 ft
800 to 1500m
200 to 500 ft
< 800m
< 200 ft
Symbols :   Thunderstorms  Fog  Heavy snow  Heavy precipitations  Wind > 20 kt






- Airport Elevation : 1333 ft
- IATA code : ICT


KICT - Wichita Mid Continent

CURRENT METAR :
  • 281953Z 18022G28KT 10SM FEW050 FEW220 13/04 A2968 RMK AO2 PK WND 18029/1913 SLP052 T01330039

EXPIRED METARs :
  • 281853Z 17018G24KT 10SM FEW200 13/03 A2971 RMK AO2 SLP063 T01280028
  • 281753Z 17016G23KT 10SM SCT200 12/01 A2976 RMK AO2 SLP080 T01170011 10117 21022 58023

TAF KICT
Valid from the 28 at 18:00 until the 29 at 18:00 UTC


281740Z 2818/2918 17015G22KT P6SM SCT250
FM290500 17016G24KT P6SM BKN200 WS020/21045KT
FM291100 21016G24KT P6SM BKN200
FM291700 32017G25KT P6SM BKN025
KZKC FIR / North America


LOGIN :  

Disclaimer |     EN      FR      IT 



MET'MAP, your aeronautical weather chart ! - Copyright ORBIFLY December 2007 - Disclaimer


ORBIFLY MET'MAP TEAM :

Programming & Development : Alexandra Zaïnal
Original concept : Baudouin d'Aumeries
Technical & hardware support : Manuel Goepfert
Assistance : Marc-Olivier Méhu




SOURCES & CREDITS :

   NOAA       Earth
Advisory